createdAt,value
2022-08-17T00:00:49.459Z,19.20
2022-08-17T00:03:40.348Z,19.20
2022-08-17T00:06:28.852Z,19.10
2022-08-17T00:09:18.377Z,19.00
2022-08-17T00:12:41.080Z,19.00
2022-08-17T00:15:13.350Z,18.90
2022-08-17T00:18:00.169Z,18.80
2022-08-17T00:20:46.786Z,18.60
2022-08-17T00:23:33.550Z,18.50
2022-08-17T00:26:34.597Z,18.40
2022-08-17T00:29:28.428Z,18.40
2022-08-17T00:33:14.308Z,18.60
2022-08-17T00:35:23.672Z,18.60
2022-08-17T00:38:10.410Z,18.70
2022-08-17T00:40:59.275Z,18.70
2022-08-17T00:43:47.927Z,18.70
2022-08-17T00:46:37.166Z,18.70
2022-08-17T00:49:26.167Z,18.60
2022-08-17T00:52:16.525Z,18.60
2022-08-17T00:55:04.663Z,18.60
2022-08-17T00:57:55.599Z,18.70
2022-08-17T01:00:45.727Z,18.80
2022-08-17T01:03:32.913Z,19.00
2022-08-17T01:06:20.722Z,19.10
2022-08-17T01:09:09.432Z,19.20
2022-08-17T01:11:56.121Z,19.20
2022-08-17T01:14:42.786Z,19.30
2022-08-17T01:17:29.721Z,19.40
2022-08-17T01:20:16.947Z,19.30
2022-08-17T01:23:03.589Z,19.30
2022-08-17T01:25:51.155Z,19.20
2022-08-17T01:28:53.394Z,19.10
2022-08-17T01:31:49.090Z,19.10
2022-08-17T01:34:42.928Z,19.10
2022-08-17T01:37:37.935Z,19.10
2022-08-17T01:40:36.167Z,19.00
2022-08-17T01:43:25.006Z,19.20
2022-08-17T01:46:14.510Z,19.30
2022-08-17T01:49:01.501Z,19.40
2022-08-17T01:51:48.270Z,19.50
2022-08-17T01:54:35.374Z,19.60
2022-08-17T01:57:22.026Z,19.70
2022-08-17T02:00:13.070Z,19.70
2022-08-17T02:02:59.729Z,19.70
2022-08-17T02:05:48.451Z,19.60
2022-08-17T02:08:38.998Z,19.60
2022-08-17T02:11:26.311Z,19.60
2022-08-17T02:14:13.086Z,19.60
2022-08-17T02:16:59.786Z,19.60
2022-08-17T02:19:46.447Z,19.50
2022-08-17T02:22:33.246Z,19.50
2022-08-17T02:25:20.917Z,19.50
2022-08-17T02:28:07.608Z,19.40
2022-08-17T02:31:00.912Z,19.40
2022-08-17T02:34:00.337Z,19.40
2022-08-17T02:36:53.368Z,19.30
2022-08-17T02:39:40.154Z,19.30
2022-08-17T02:42:33.794Z,19.30
2022-08-17T02:45:22.859Z,19.30
2022-08-17T02:48:09.870Z,19.20
2022-08-17T02:50:56.727Z,19.20
2022-08-17T02:53:43.503Z,19.20
2022-08-17T02:56:30.222Z,19.30
2022-08-17T02:59:16.884Z,19.30
2022-08-17T03:02:04.375Z,19.30
2022-08-17T03:04:51.103Z,19.30
2022-08-17T03:07:38.386Z,19.30
2022-08-17T03:10:25.507Z,19.30
2022-08-17T03:13:14.397Z,19.30
2022-08-17T03:16:01.087Z,19.30
2022-08-17T03:18:48.572Z,19.40
2022-08-17T03:21:35.718Z,19.40
2022-08-17T03:24:28.680Z,19.40
2022-08-17T03:27:15.707Z,19.60
2022-08-17T03:30:03.802Z,19.60
2022-08-17T03:32:51.568Z,19.70
2022-08-17T03:35:40.386Z,19.70
2022-08-17T03:38:27.183Z,19.70
2022-08-17T03:41:14.114Z,19.70
2022-08-17T03:44:01.168Z,19.80
2022-08-17T03:47:06.554Z,19.90
2022-08-17T03:50:11.727Z,20.00
2022-08-17T03:53:21.465Z,20.20
2022-08-17T03:56:26.726Z,20.30
2022-08-17T03:59:21.186Z,20.50
2022-08-17T04:02:29.500Z,20.60
2022-08-17T04:05:16.251Z,20.60
2022-08-17T04:08:03.040Z,20.60
2022-08-17T04:10:52.055Z,20.60
2022-08-17T04:13:38.687Z,20.50
2022-08-17T04:16:25.511Z,20.30
2022-08-17T04:19:12.257Z,20.10
2022-08-17T04:21:58.959Z,20.00
2022-08-17T04:24:45.603Z,19.90
2022-08-17T04:27:32.415Z,19.90
2022-08-17T04:30:19.168Z,19.90
2022-08-17T04:33:08.776Z,19.80
2022-08-17T04:35:57.034Z,19.80
2022-08-17T04:38:44.580Z,19.70
2022-08-17T04:41:49.839Z,19.70
2022-08-17T04:44:36.891Z,19.70
2022-08-17T04:47:24.754Z,19.80
2022-08-17T04:50:11.421Z,19.90
2022-08-17T04:52:58.431Z,19.90
2022-08-17T04:55:45.316Z,20.00
2022-08-17T04:58:32.006Z,20.00
2022-08-17T05:01:23.110Z,20.00
2022-08-17T05:04:33.413Z,20.10
2022-08-17T05:07:23.459Z,20.20
2022-08-17T05:10:11.327Z,20.30
2022-08-17T05:12:59.674Z,20.30
2022-08-17T05:15:47.896Z,20.40
2022-08-17T05:18:34.830Z,20.40
2022-08-17T05:21:22.083Z,20.40
2022-08-17T05:24:13.524Z,20.30
2022-08-17T05:27:19.123Z,20.30
2022-08-17T05:30:06.315Z,20.20
2022-08-17T05:32:58.929Z,20.10
2022-08-17T05:35:49.519Z,20.20
2022-08-17T05:38:36.194Z,20.20
2022-08-17T05:41:22.841Z,20.20
2022-08-17T05:44:09.470Z,20.30
2022-08-17T05:46:56.252Z,20.50
2022-08-17T05:49:42.908Z,20.60
2022-08-17T05:52:37.372Z,20.80
2022-08-17T05:55:30.787Z,20.90
2022-08-17T05:58:27.868Z,21.00
2022-08-17T06:01:22.752Z,21.00
2022-08-17T06:04:18.925Z,21.00
2022-08-17T06:07:25.809Z,21.00
2022-08-17T06:10:30.923Z,21.10
2022-08-17T06:13:36.404Z,21.00
2022-08-17T06:16:34.238Z,21.00
2022-08-17T06:19:24.457Z,21.10
2022-08-17T06:22:12.652Z,21.10
2022-08-17T06:25:12.750Z,21.20
2022-08-17T06:28:19.687Z,21.20
2022-08-17T06:31:11.123Z,21.40
2022-08-17T06:33:58.508Z,21.50
2022-08-17T06:36:57.506Z,21.50
2022-08-17T06:39:56.015Z,21.60
2022-08-17T06:43:06.405Z,21.70
2022-08-17T06:45:57.557Z,21.80
2022-08-17T06:48:50.011Z,21.70
2022-08-17T06:51:41.386Z,21.70
2022-08-17T06:54:38.769Z,21.60
2022-08-17T06:57:28.294Z,21.60
2022-08-17T07:00:17.410Z,21.60
2022-08-17T07:03:06.205Z,21.70
2022-08-17T07:06:03.247Z,21.70
2022-08-17T07:08:52.980Z,21.70
2022-08-17T07:11:53.874Z,21.70
2022-08-17T07:14:52.955Z,21.60
2022-08-17T07:17:47.263Z,21.60
2022-08-17T07:20:35.675Z,21.60
2022-08-17T07:23:22.331Z,21.60
2022-08-17T07:26:09.615Z,21.70
2022-08-17T07:28:56.282Z,21.80
2022-08-17T07:31:42.942Z,21.90
2022-08-17T07:34:29.583Z,22.00
2022-08-17T07:37:18.787Z,22.10
2022-08-17T07:40:17.068Z,22.10
2022-08-17T07:43:15.558Z,22.20
2022-08-17T07:46:41.437Z,22.20
2022-08-17T07:49:31.164Z,22.30
2022-08-17T07:52:48.437Z,22.40
2022-08-17T07:55:35.968Z,22.60
2022-08-17T07:58:23.960Z,22.80
2022-08-17T08:01:14.742Z,23.10
2022-08-17T08:04:02.362Z,23.30
2022-08-17T08:06:52.979Z,23.50
2022-08-17T08:10:05.979Z,23.70
2022-08-17T08:13:02.100Z,23.70
2022-08-17T08:15:54.730Z,23.60
2022-08-17T08:18:54.719Z,23.70
2022-08-17T08:21:55.159Z,23.90
2022-08-17T08:24:51.398Z,24.10
2022-08-17T08:28:01.658Z,24.20
2022-08-17T08:30:49.905Z,24.50
2022-08-17T08:33:39.749Z,24.70
2022-08-17T08:37:14.526Z,24.80
2022-08-17T08:40:03.741Z,24.70
2022-08-17T08:43:03.924Z,24.70
2022-08-17T08:45:54.715Z,24.80
2022-08-17T08:48:53.433Z,25.10
2022-08-17T08:51:52.755Z,25.20
2022-08-17T08:54:56.807Z,25.30
2022-08-17T08:58:00.142Z,25.30
2022-08-17T09:00:50.361Z,25.20
2022-08-17T09:03:52.422Z,25.00
2022-08-17T09:06:48.279Z,24.80
2022-08-17T09:09:34.908Z,24.60
2022-08-17T09:12:29.351Z,24.60
2022-08-17T09:15:27.661Z,24.50
2022-08-17T09:19:03.059Z,24.60
2022-08-17T09:21:47.951Z,24.70
2022-08-17T09:24:39.968Z,24.70
2022-08-17T09:27:28.796Z,24.80
2022-08-17T09:30:15.480Z,25.00
2022-08-17T09:33:04.844Z,25.60
2022-08-17T09:36:03.396Z,26.10
2022-08-17T09:38:53.144Z,26.50
2022-08-17T09:41:39.804Z,26.90
2022-08-17T09:44:40.786Z,27.30
2022-08-17T09:47:42.124Z,27.60
2022-08-17T09:51:05.073Z,27.60
2022-08-17T09:53:44.786Z,27.50
2022-08-17T09:56:34.732Z,27.10
2022-08-17T09:59:38.646Z,26.90
2022-08-17T10:02:44.279Z,26.90
2022-08-17T10:05:34.350Z,27.10
2022-08-17T10:08:30.103Z,27.10
2022-08-17T10:11:16.733Z,26.90
2022-08-17T10:14:35.988Z,26.50
2022-08-17T10:17:24.319Z,26.20
2022-08-17T10:20:14.033Z,25.80
2022-08-17T10:23:29.050Z,25.60
2022-08-17T10:26:18.787Z,25.30
2022-08-17T10:29:12.540Z,24.70
2022-08-17T10:32:04.241Z,24.20
2022-08-17T10:34:53.967Z,23.80
2022-08-17T10:37:46.645Z,23.40
2022-08-17T10:40:55.851Z,23.30
2022-08-17T10:44:30.633Z,23.30
2022-08-17T10:47:05.770Z,23.60
2022-08-17T10:49:55.991Z,24.40
2022-08-17T10:52:42.640Z,25.10
2022-08-17T10:55:29.326Z,25.60
2022-08-17T10:58:24.446Z,25.80
2022-08-17T11:01:13.809Z,26.00
2022-08-17T11:04:03.700Z,26.10
2022-08-17T11:06:50.340Z,26.10
2022-08-17T11:09:40.013Z,26.30
2022-08-17T11:12:29.739Z,26.50
2022-08-17T11:15:50.624Z,26.80
2022-08-17T11:18:40.384Z,27.20
2022-08-17T11:21:42.287Z,27.80
2022-08-17T11:24:44.676Z,28.20
2022-08-17T11:27:36.325Z,28.60
2022-08-17T11:30:44.500Z,28.90
2022-08-17T11:33:31.997Z,29.40
2022-08-17T11:36:37.491Z,30.60
2022-08-17T11:39:24.155Z,31.70
2022-08-17T11:42:11.865Z,33.30
2022-08-17T11:45:32.712Z,34.80
2022-08-17T11:48:54.459Z,34.50
2022-08-17T11:52:00.330Z,37.40
2022-08-17T11:54:48.689Z,41.90
2022-08-17T11:57:41.422Z,45.10
2022-08-17T12:00:49.252Z,44.80
2022-08-17T12:03:36.915Z,44.60
2022-08-17T12:06:30.427Z,46.50
2022-08-17T12:09:26.388Z,48.50
2022-08-17T12:12:15.065Z,48.90
2022-08-17T12:15:10.560Z,48.50
2022-08-17T12:17:58.939Z,48.10
2022-08-17T12:20:47.535Z,48.00
2022-08-17T12:23:39.327Z,49.10
2022-08-17T12:26:31.413Z,48.00
2022-08-17T12:29:35.613Z,45.20
2022-08-17T12:32:27.476Z,43.00
2022-08-17T12:35:23.965Z,43.50
2022-08-17T12:38:31.833Z,44.80
2022-08-17T12:41:30.965Z,45.90
2022-08-17T12:44:21.903Z,45.20
2022-08-17T12:47:21.117Z,44.30
2022-08-17T12:50:29.579Z,42.30
2022-08-17T12:53:16.790Z,39.90
2022-08-17T12:56:09.427Z,38.00
2022-08-17T12:58:56.571Z,36.40
2022-08-17T13:01:43.529Z,36.00
2022-08-17T13:04:31.193Z,35.30
2022-08-17T13:07:28.401Z,35.00
2022-08-17T13:10:21.352Z,34.80
2022-08-17T13:13:19.484Z,34.50
2022-08-17T13:16:09.491Z,34.30
2022-08-17T13:19:07.585Z,34.30
2022-08-17T13:21:59.010Z,34.50
2022-08-17T13:24:53.079Z,34.60
2022-08-17T13:27:42.184Z,34.30
2022-08-17T13:30:32.561Z,33.80
2022-08-17T13:33:33.980Z,33.20
2022-08-17T13:36:33.746Z,32.80
2022-08-17T13:39:21.993Z,32.60
2022-08-17T13:42:27.468Z,32.60
2022-08-17T13:45:39.275Z,32.70
2022-08-17T13:48:28.178Z,32.50
2022-08-17T13:51:19.696Z,32.40
2022-08-17T13:54:07.103Z,32.30
2022-08-17T13:56:55.676Z,32.10
2022-08-17T13:59:55.030Z,31.90
2022-08-17T14:02:42.296Z,31.50
2022-08-17T14:05:30.171Z,31.20
2022-08-17T14:08:17.970Z,31.00
2022-08-17T14:11:04.678Z,30.90
2022-08-17T14:13:51.430Z,30.80
2022-08-17T14:16:41.603Z,30.90
2022-08-17T14:19:28.322Z,30.90
2022-08-17T14:22:18.196Z,31.00
2022-08-17T14:25:06.171Z,31.10
2022-08-17T14:27:57.482Z,31.10
2022-08-17T14:30:44.286Z,31.10
2022-08-17T14:33:30.943Z,31.10
2022-08-17T14:36:17.851Z,31.00
2022-08-17T14:39:05.418Z,30.90
2022-08-17T14:41:53.027Z,31.00
2022-08-17T14:44:39.921Z,31.00
2022-08-17T14:47:26.610Z,31.10
2022-08-17T14:50:13.867Z,30.90
2022-08-17T14:53:06.808Z,30.80
2022-08-17T14:55:53.568Z,30.80
2022-08-17T14:58:42.440Z,30.70
2022-08-17T15:01:29.172Z,30.60
2022-08-17T15:04:18.589Z,30.50
2022-08-17T15:07:06.464Z,30.40
2022-08-17T15:09:53.071Z,30.20
2022-08-17T15:12:40.791Z,30.10
2022-08-17T15:15:27.643Z,29.90
2022-08-17T15:18:14.554Z,29.70
2022-08-17T15:21:03.487Z,29.50
2022-08-17T15:23:51.083Z,29.30
2022-08-17T15:26:37.817Z,29.20
2022-08-17T15:29:24.487Z,29.00
2022-08-17T15:32:11.141Z,28.80
2022-08-17T15:34:58.732Z,28.60
2022-08-17T15:37:45.395Z,28.40
2022-08-17T15:40:32.041Z,28.20
2022-08-17T15:43:27.654Z,28.10
2022-08-17T15:46:18.755Z,27.90
2022-08-17T15:49:05.467Z,27.80
2022-08-17T15:51:52.118Z,27.60
2022-08-17T15:54:38.784Z,27.50
2022-08-17T15:57:26.217Z,27.30
2022-08-17T16:00:13.035Z,27.10
2022-08-17T16:03:44.715Z,26.90
2022-08-17T16:06:09.896Z,26.80
2022-08-17T16:08:59.346Z,26.60
2022-08-17T16:11:46.325Z,26.50
2022-08-17T16:14:41.711Z,26.30
2022-08-17T16:17:49.412Z,26.30
2022-08-17T16:20:36.327Z,26.10
2022-08-17T16:24:57.452Z,25.90
2022-08-17T16:27:45.896Z,25.90
2022-08-17T16:30:33.285Z,25.80
2022-08-17T16:33:20.077Z,25.70
2022-08-17T16:36:07.539Z,25.60
2022-08-17T16:38:54.299Z,25.60
2022-08-17T16:41:50.708Z,25.50
2022-08-17T16:44:37.516Z,25.50
2022-08-17T16:47:24.313Z,25.40
2022-08-17T16:50:13.529Z,25.20
2022-08-17T16:53:06.630Z,25.10
2022-08-17T16:55:53.702Z,24.90
2022-08-17T16:58:40.934Z,24.60
2022-08-17T17:01:30.266Z,24.30
2022-08-17T17:04:18.880Z,24.00
2022-08-17T17:07:33.636Z,23.70
2022-08-17T17:10:24.613Z,23.20
2022-08-17T17:13:32.328Z,22.70
2022-08-17T17:16:34.808Z,22.30
2022-08-17T17:19:27.912Z,21.80
2022-08-17T17:22:31.683Z,21.70
2022-08-17T17:25:27.977Z,21.80
2022-08-17T17:28:26.688Z,21.90
2022-08-17T17:31:26.588Z,21.90
2022-08-17T17:34:16.513Z,22.00
2022-08-17T17:37:12.580Z,22.00
2022-08-17T17:40:13.293Z,21.90
2022-08-17T17:43:20.489Z,21.80
2022-08-17T17:46:28.478Z,21.80
2022-08-17T17:49:18.187Z,21.70
2022-08-17T17:52:32.037Z,21.60
2022-08-17T17:55:23.566Z,21.60
2022-08-17T17:58:25.456Z,21.60
2022-08-17T18:01:29.138Z,21.60
2022-08-17T18:04:33.088Z,21.60
2022-08-17T18:07:37.712Z,21.50
2022-08-17T18:10:34.858Z,21.50
2022-08-17T18:13:33.139Z,21.50
2022-08-17T18:16:20.028Z,21.40
2022-08-17T18:19:12.112Z,21.30
2022-08-17T18:22:14.128Z,21.30
2022-08-17T18:25:01.401Z,21.10
2022-08-17T18:27:51.878Z,20.90
2022-08-17T18:30:38.788Z,20.90
2022-08-17T18:33:26.827Z,20.90
2022-08-17T18:36:30.336Z,20.90
2022-08-17T18:39:28.175Z,21.00
2022-08-17T18:42:26.316Z,21.10
2022-08-17T18:45:30.351Z,21.10
2022-08-17T18:48:48.739Z,21.20
2022-08-17T18:51:42.219Z,21.20
2022-08-17T18:54:29.365Z,21.20
2022-08-17T18:57:40.117Z,21.20
2022-08-17T19:00:29.600Z,21.20
2022-08-17T19:03:16.287Z,21.10
2022-08-17T19:06:22.047Z,21.10
2022-08-17T19:09:30.528Z,21.10
2022-08-17T19:12:29.612Z,21.00
2022-08-17T19:15:35.718Z,21.00
2022-08-17T19:18:31.706Z,21.00
2022-08-17T19:21:38.581Z,21.00
2022-08-17T19:24:27.790Z,21.00
2022-08-17T19:27:21.512Z,21.00
2022-08-17T19:30:13.077Z,21.00
2022-08-17T19:33:01.980Z,21.00
2022-08-17T19:36:22.605Z,20.90
2022-08-17T19:39:09.312Z,20.90
2022-08-17T19:42:24.648Z,20.80
2022-08-17T19:45:20.677Z,20.70
2022-08-17T19:48:48.447Z,20.60
2022-08-17T19:51:47.852Z,20.60
2022-08-17T19:54:43.764Z,20.50
2022-08-17T19:57:47.559Z,20.50
2022-08-17T20:00:46.994Z,20.40
2022-08-17T20:04:03.835Z,20.30
2022-08-17T20:06:51.760Z,20.20
2022-08-17T20:10:02.404Z,20.10
2022-08-17T20:12:51.840Z,20.00
2022-08-17T20:15:42.404Z,19.90
2022-08-17T20:19:00.135Z,19.80
2022-08-17T20:22:06.205Z,19.80
2022-08-17T20:25:03.626Z,19.70
2022-08-17T20:28:05.828Z,19.70
2022-08-17T20:30:55.080Z,19.60
2022-08-17T20:33:41.836Z,19.60
2022-08-17T20:36:30.627Z,19.50
2022-08-17T20:39:37.810Z,19.50
2022-08-17T20:42:24.588Z,19.50
2022-08-17T20:45:25.048Z,19.50
2022-08-17T20:48:36.863Z,19.50
2022-08-17T20:52:00.770Z,19.50
2022-08-17T20:54:50.560Z,19.50
2022-08-17T20:57:37.423Z,19.50
2022-08-17T21:00:30.261Z,19.40
2022-08-17T21:03:22.778Z,19.40
2022-08-17T21:06:17.514Z,19.40
2022-08-17T21:09:14.977Z,19.40
2022-08-17T21:12:04.869Z,19.50
2022-08-17T21:15:03.666Z,19.40
2022-08-17T21:18:03.161Z,19.40
2022-08-17T21:21:19.565Z,19.30
2022-08-17T21:24:44.057Z,19.30
2022-08-17T21:28:10.821Z,19.30
2022-08-17T21:31:08.330Z,19.20
2022-08-17T21:34:16.061Z,19.20
2022-08-17T21:37:22.204Z,19.20
2022-08-17T21:40:10.243Z,19.20
2022-08-17T21:43:14.660Z,19.20
2022-08-17T21:46:21.790Z,19.20
2022-08-17T21:49:13.770Z,19.10
2022-08-17T21:52:02.330Z,19.00
2022-08-17T21:54:58.399Z,18.70
2022-08-17T21:57:53.218Z,18.40
2022-08-17T22:01:09.483Z,18.00
2022-08-17T22:04:11.394Z,17.70
2022-08-17T22:07:05.254Z,17.70
2022-08-17T22:09:52.018Z,17.80
2022-08-17T22:12:38.767Z,17.80
2022-08-17T22:15:25.491Z,17.80
2022-08-17T22:18:19.552Z,17.80
2022-08-17T22:21:07.740Z,17.80
2022-08-17T22:24:15.370Z,17.70
2022-08-17T22:27:07.555Z,17.80
2022-08-17T22:29:58.362Z,17.90
2022-08-17T22:32:47.656Z,17.90
2022-08-17T22:35:36.538Z,18.00
2022-08-17T22:38:26.445Z,18.10
2022-08-17T22:41:46.139Z,18.10
2022-08-17T22:44:44.890Z,18.10
2022-08-17T22:47:40.852Z,18.00
2022-08-17T22:50:30.396Z,18.10
2022-08-17T22:53:41.639Z,18.10
2022-08-17T22:56:47.062Z,18.10
2022-08-17T22:59:50.856Z,18.00
2022-08-17T23:02:51.124Z,18.00
2022-08-17T23:05:45.948Z,18.00
2022-08-17T23:08:36.662Z,18.00
2022-08-17T23:11:36.875Z,18.00
2022-08-17T23:14:40.828Z,18.00
2022-08-17T23:17:37.211Z,18.00
2022-08-17T23:20:24.291Z,18.00
2022-08-17T23:23:18.751Z,17.90
2022-08-17T23:26:10.392Z,17.90
2022-08-17T23:28:57.257Z,17.90
2022-08-17T23:31:44.267Z,18.00
2022-08-17T23:34:31.098Z,18.10
2022-08-17T23:37:19.331Z,18.20
2022-08-17T23:40:06.509Z,18.20
2022-08-17T23:42:53.609Z,18.20
2022-08-17T23:45:42.099Z,18.00
2022-08-17T23:48:36.590Z,17.70
2022-08-17T23:51:30.126Z,17.70
2022-08-17T23:54:35.463Z,17.50
2022-08-17T23:57:33.892Z,17.40
